createdAt,value
2019-03-18T00:00:24.919Z,99346.09
2019-03-18T00:03:30.100Z,99353.10
2019-03-18T00:06:35.260Z,99349.17
2019-03-18T00:09:40.871Z,99352.34
2019-03-18T00:12:46.014Z,99361.52
2019-03-18T00:15:51.191Z,99362.23
2019-03-18T00:18:56.345Z,99358.53
2019-03-18T00:22:01.530Z,99352.66
2019-03-18T00:25:06.998Z,99357.39
2019-03-18T00:28:12.221Z,99361.66
2019-03-18T00:31:17.375Z,99368.05
2019-03-18T00:34:22.529Z,99372.67
2019-03-18T00:37:27.624Z,99381.20
2019-03-18T00:40:33.053Z,99380.70
2019-03-18T00:43:38.238Z,99379.59
2019-03-18T00:46:43.350Z,99379.34
2019-03-18T00:49:48.476Z,99387.46
2019-03-18T00:52:53.648Z,99393.38
2019-03-18T00:55:58.806Z,99392.57
2019-03-18T00:59:03.869Z,99405.37
2019-03-18T01:02:09.001Z,99401.59
2019-03-18T01:05:14.444Z,99406.56
2019-03-18T01:08:19.659Z,99406.94
2019-03-18T01:11:24.808Z,99392.13
2019-03-18T01:14:29.923Z,99391.92
2019-03-18T01:17:35.246Z,99389.40
2019-03-18T01:20:40.478Z,99385.19
2019-03-18T01:23:45.573Z,99383.03
2019-03-18T01:26:50.684Z,99377.33
2019-03-18T01:29:55.825Z,99373.94
2019-03-18T01:33:01.009Z,99377.05
2019-03-18T01:36:06.181Z,99376.87
2019-03-18T01:39:11.382Z,99362.46
2019-03-18T01:42:16.974Z,99387.25
2019-03-18T01:45:22.216Z,99398.45
2019-03-18T01:48:27.344Z,99391.55
2019-03-18T01:51:32.452Z,99371.00
2019-03-18T01:54:37.559Z,99380.98
2019-03-18T01:57:42.649Z,99393.48
2019-03-18T02:00:47.754Z,99378.15
2019-03-18T02:03:52.851Z,99377.11
2019-03-18T02:06:58.053Z,99380.02
2019-03-18T02:10:03.317Z,99375.03
2019-03-18T02:13:08.487Z,99367.42
2019-03-18T02:16:13.611Z,99363.63
2019-03-18T02:19:18.756Z,99362.38
2019-03-18T02:22:23.979Z,99362.05
2019-03-18T02:25:29.078Z,99368.06
2019-03-18T02:28:34.205Z,99363.09
2019-03-18T02:31:40.440Z,99367.15
2019-03-18T02:34:45.527Z,99373.45
2019-03-18T02:37:50.680Z,99377.28
2019-03-18T02:40:55.840Z,99376.87
2019-03-18T02:44:00.972Z,99385.58
2019-03-18T02:47:06.094Z,99382.09
2019-03-18T02:50:12.328Z,99375.17
2019-03-18T02:53:17.495Z,99383.43
2019-03-18T02:56:22.655Z,99375.64
2019-03-18T02:59:27.799Z,99372.47
2019-03-18T03:02:32.848Z,99382.77
2019-03-18T03:05:38.972Z,99377.33
2019-03-18T03:08:44.124Z,99380.61
2019-03-18T03:11:49.257Z,99386.78
2019-03-18T03:14:54.414Z,99393.41
2019-03-18T03:17:59.496Z,99388.75
2019-03-18T03:21:04.608Z,99404.01
2019-03-18T03:24:09.799Z,99407.34
2019-03-18T03:27:14.914Z,99403.28
2019-03-18T03:30:20.048Z,99398.39
2019-03-18T03:33:25.217Z,99405.19
2019-03-18T03:36:30.337Z,99405.16
2019-03-18T03:39:35.539Z,99406.81
2019-03-18T03:42:40.670Z,99412.69
2019-03-18T03:45:45.756Z,99410.20
2019-03-18T03:48:50.890Z,99424.50
2019-03-18T03:51:56.051Z,99417.53
2019-03-18T03:55:01.227Z,99423.48
2019-03-18T03:58:06.471Z,99433.11
2019-03-18T04:01:11.635Z,99434.95
2019-03-18T04:04:16.729Z,99434.12
2019-03-18T04:07:21.871Z,99432.95
2019-03-18T04:10:26.951Z,99432.95
2019-03-18T04:13:32.090Z,99432.45
2019-03-18T04:16:37.213Z,99443.59
2019-03-18T04:19:42.260Z,99440.41
2019-03-18T04:22:47.364Z,99442.38
2019-03-18T04:25:52.575Z,99450.19
2019-03-18T04:28:57.719Z,99453.80
2019-03-18T04:32:02.847Z,99454.08
2019-03-18T04:35:07.975Z,99462.02
2019-03-18T04:38:13.084Z,99471.30
2019-03-18T04:41:18.280Z,99467.81
2019-03-18T04:44:24.541Z,99474.53
2019-03-18T04:47:29.661Z,99477.91
2019-03-18T04:50:34.755Z,99474.53
2019-03-18T04:53:39.924Z,99471.20
2019-03-18T04:56:45.031Z,99468.84
2019-03-18T04:59:50.134Z,99475.77
2019-03-18T05:02:55.286Z,99475.55
2019-03-18T05:06:00.468Z,99469.56
2019-03-18T05:09:07.800Z,99469.83
2019-03-18T05:12:12.908Z,99470.69
2019-03-18T05:15:18.045Z,99468.74
2019-03-18T05:18:23.163Z,99470.17
2019-03-18T05:21:28.341Z,99469.96
2019-03-18T05:24:33.401Z,99470.39
2019-03-18T05:27:38.527Z,99469.56
2019-03-18T05:30:43.683Z,99484.05
2019-03-18T05:33:48.806Z,99481.50
2019-03-18T05:36:53.973Z,99490.47
2019-03-18T05:39:59.074Z,99491.34
2019-03-18T05:43:04.215Z,99496.44
2019-03-18T05:46:09.347Z,99501.56
2019-03-18T05:49:14.470Z,99508.54
2019-03-18T05:52:19.621Z,99518.60
2019-03-18T05:55:24.767Z,99518.84
2019-03-18T05:58:29.878Z,99522.44
2019-03-18T06:01:35.002Z,99527.41
2019-03-18T06:04:40.255Z,99534.06
2019-03-18T06:07:45.363Z,99540.22
2019-03-18T06:10:50.563Z,99539.34
2019-03-18T06:13:56.665Z,99552.27
2019-03-18T06:17:01.915Z,99556.63
2019-03-18T06:20:07.978Z,99562.73
2019-03-18T06:23:13.161Z,99570.88
2019-03-18T06:26:18.373Z,99569.55
2019-03-18T06:29:23.500Z,99579.19
2019-03-18T06:32:28.640Z,99586.82
2019-03-18T06:35:33.852Z,99592.52
2019-03-18T06:38:38.966Z,99598.77
2019-03-18T06:41:44.123Z,99602.47
2019-03-18T06:44:49.369Z,99606.97
2019-03-18T06:48:04.139Z,99618.72
2019-03-18T06:51:01.355Z,99619.27
2019-03-18T06:54:06.523Z,99625.53
2019-03-18T06:57:11.614Z,99623.80
2019-03-18T07:00:17.768Z,99618.86
2019-03-18T07:03:22.909Z,99617.68
2019-03-18T07:06:28.057Z,99628.08
2019-03-18T07:09:33.170Z,99626.36
2019-03-18T07:12:38.241Z,99624.38
2019-03-18T07:15:43.403Z,99624.80
2019-03-18T07:18:48.568Z,99618.41
2019-03-18T07:21:53.839Z,99616.70
2019-03-18T07:24:59.025Z,99618.00
2019-03-18T07:28:04.143Z,99623.45
2019-03-18T07:31:09.298Z,99627.77
2019-03-18T07:34:14.449Z,99634.92
2019-03-18T07:37:19.610Z,99635.17
2019-03-18T07:40:24.836Z,99652.05
2019-03-18T07:43:29.990Z,99668.64
2019-03-18T07:46:35.162Z,99669.00
2019-03-18T07:49:40.255Z,99660.22
2019-03-18T07:52:45.395Z,99654.34
2019-03-18T07:55:50.516Z,99645.78
2019-03-18T07:58:56.733Z,99642.84
2019-03-18T08:02:01.816Z,99651.75
2019-03-18T08:05:08.174Z,99654.73
2019-03-18T08:08:13.455Z,99660.04
2019-03-18T08:11:18.634Z,99662.69
2019-03-18T08:14:23.726Z,99675.25
2019-03-18T08:17:28.980Z,99672.70
2019-03-18T08:20:34.111Z,99670.23
2019-03-18T08:24:11.671Z,99674.06
2019-03-18T08:27:16.942Z,99667.93
2019-03-18T08:30:22.048Z,99677.09
2019-03-18T08:33:27.245Z,99677.17
2019-03-18T08:36:32.444Z,99676.56
2019-03-18T08:39:37.721Z,99685.23
2019-03-18T08:42:42.930Z,99687.50
2019-03-18T08:45:48.057Z,99692.91
2019-03-18T08:48:56.007Z,99696.25
2019-03-18T08:52:00.128Z,99698.86
2019-03-18T08:55:05.534Z,99705.16
2019-03-18T08:58:10.742Z,99718.70
2019-03-18T09:01:15.905Z,99725.86
2019-03-18T09:04:21.156Z,99735.90
2019-03-18T09:07:26.328Z,99745.92
2019-03-18T09:10:32.439Z,99744.20
2019-03-18T09:13:37.619Z,99751.09
2019-03-18T09:16:42.796Z,99755.98
2019-03-18T09:19:47.948Z,99757.37
2019-03-18T09:22:53.172Z,99757.42
2019-03-18T09:25:58.375Z,99761.47
2019-03-18T09:29:03.569Z,99759.36
2019-03-18T09:32:08.664Z,99772.63
2019-03-18T09:35:13.822Z,99768.41
2019-03-18T09:38:19.005Z,99775.37
2019-03-18T09:41:24.143Z,99775.52
2019-03-18T09:44:29.311Z,99776.27
2019-03-18T09:47:34.593Z,99786.62
2019-03-18T09:50:39.767Z,99783.42
2019-03-18T09:53:45.018Z,99786.31
2019-03-18T09:56:50.119Z,99801.22
2019-03-18T09:59:55.275Z,99807.73
2019-03-18T10:03:00.451Z,99807.47
2019-03-18T10:06:05.663Z,99799.86
2019-03-18T10:09:10.791Z,99798.30
2019-03-18T10:12:15.971Z,99804.61
2019-03-18T10:15:21.234Z,99796.72
2019-03-18T10:18:26.412Z,99801.04
2019-03-18T10:21:31.594Z,99805.70
2019-03-18T10:24:36.799Z,99806.22
2019-03-18T10:27:42.014Z,99803.50
2019-03-18T10:30:47.133Z,99807.71
2019-03-18T10:33:52.401Z,99799.08
2019-03-18T10:36:57.581Z,99802.95
2019-03-18T10:40:03.923Z,99813.10
2019-03-18T10:43:09.067Z,99820.80
2019-03-18T10:46:14.166Z,99823.18
2019-03-18T10:49:19.425Z,99823.55
2019-03-18T10:52:24.551Z,99816.98
2019-03-18T10:55:29.729Z,99817.83
2019-03-18T10:58:34.819Z,99820.27
2019-03-18T11:01:40.041Z,99824.67
2019-03-18T11:04:45.139Z,99825.72
2019-03-18T11:07:51.751Z,99815.92
2019-03-18T11:10:58.202Z,99822.30
2019-03-18T11:14:03.510Z,99839.22
2019-03-18T11:17:09.671Z,99835.55
2019-03-18T11:20:14.898Z,99836.51
2019-03-18T11:23:20.109Z,99835.28
2019-03-18T11:26:25.379Z,99839.64
2019-03-18T11:29:30.495Z,99834.72
2019-03-18T11:32:35.739Z,99843.73
2019-03-18T11:35:40.826Z,99836.36
2019-03-18T11:39:16.105Z,99843.03
2019-03-18T11:42:21.300Z,99849.56
2019-03-18T11:45:26.427Z,99857.34
2019-03-18T11:48:31.574Z,99865.05
2019-03-18T11:51:36.718Z,99879.66
2019-03-18T11:54:41.906Z,99852.14
2019-03-18T11:57:47.015Z,99843.38
2019-03-18T12:00:52.211Z,99838.46
2019-03-18T12:03:57.394Z,99841.01
2019-03-18T12:07:02.550Z,99838.86
2019-03-18T12:10:09.949Z,99832.26
2019-03-18T12:13:16.284Z,99840.36
2019-03-18T12:16:21.557Z,99833.46
2019-03-18T12:19:26.754Z,99841.23
2019-03-18T12:22:31.867Z,99842.94
2019-03-18T12:25:37.005Z,99828.24
2019-03-18T12:28:42.153Z,99820.88
2019-03-18T12:31:47.360Z,99818.44
2019-03-18T12:34:53.526Z,99821.31
2019-03-18T12:37:58.714Z,99812.14
2019-03-18T12:41:03.837Z,99810.98
2019-03-18T12:44:09.034Z,99818.36
2019-03-18T12:47:14.162Z,99803.64
2019-03-18T12:50:36.369Z,99799.17
2019-03-18T12:53:26.484Z,99792.35
2019-03-18T12:56:31.612Z,99787.67
2019-03-18T12:59:36.843Z,99778.02
2019-03-18T13:02:42.078Z,99781.78
2019-03-18T13:05:47.247Z,99778.73
2019-03-18T13:08:52.363Z,99781.61
2019-03-18T13:11:57.588Z,99776.71
2019-03-18T13:15:02.799Z,99777.27
2019-03-18T13:18:07.995Z,99783.36
2019-03-18T13:21:13.093Z,99806.72
2019-03-18T13:24:18.204Z,99832.87
2019-03-18T13:27:23.351Z,99860.25
2019-03-18T13:30:28.456Z,99883.58
2019-03-18T13:33:33.575Z,99889.53
2019-03-18T13:36:38.816Z,99890.81
2019-03-18T13:39:43.942Z,99885.92
2019-03-18T13:42:49.139Z,99866.72
2019-03-18T13:45:55.530Z,99853.08
2019-03-18T13:49:00.965Z,99848.30
2019-03-18T13:52:06.179Z,99849.19
2019-03-18T13:55:11.361Z,99851.33
2019-03-18T13:58:16.544Z,99848.91
2019-03-18T14:01:21.735Z,99852.11
2019-03-18T14:04:28.012Z,99852.27
2019-03-18T14:07:33.147Z,99847.90
2019-03-18T14:10:38.247Z,99839.96
2019-03-18T14:13:43.497Z,99843.28
2019-03-18T14:16:48.613Z,99843.39
2019-03-18T14:19:53.815Z,99841.55
2019-03-18T14:22:58.982Z,99843.36
2019-03-18T14:26:04.085Z,99838.00
2019-03-18T14:29:09.261Z,99838.27
2019-03-18T14:32:14.395Z,99845.44
2019-03-18T14:35:21.678Z,99861.03
2019-03-18T14:38:26.379Z,99872.67
2019-03-18T14:41:31.527Z,99888.20
2019-03-18T14:44:36.692Z,99896.00
2019-03-18T14:47:41.830Z,99899.88
2019-03-18T14:50:47.032Z,99900.02
2019-03-18T14:53:52.147Z,99889.98
2019-03-18T14:56:57.315Z,99894.56
2019-03-18T15:00:02.462Z,99897.95
2019-03-18T15:03:08.857Z,99903.77
2019-03-18T15:06:14.066Z,99908.44
2019-03-18T15:09:19.306Z,99908.55
2019-03-18T15:12:24.577Z,99909.92
2019-03-18T15:15:29.698Z,99901.26
2019-03-18T15:18:34.933Z,99901.34
2019-03-18T15:21:40.120Z,99890.95
2019-03-18T15:24:45.218Z,99887.81
2019-03-18T15:27:50.314Z,99882.41
2019-03-18T15:30:55.501Z,99889.73
2019-03-18T15:34:00.686Z,99888.71
2019-03-18T15:37:05.849Z,99902.81
2019-03-18T15:40:11.754Z,99907.51
2019-03-18T15:43:16.887Z,99903.40
2019-03-18T15:46:21.975Z,99905.20
2019-03-18T15:49:27.142Z,99904.91
2019-03-18T15:52:33.217Z,99911.81
2019-03-18T15:55:38.409Z,99905.03
2019-03-18T15:58:43.536Z,99904.75
2019-03-18T16:01:48.683Z,99911.45
2019-03-18T16:04:53.790Z,99914.25
2019-03-18T16:07:59.009Z,99919.79
2019-03-18T16:11:04.149Z,99923.08
2019-03-18T16:14:09.363Z,99926.10
2019-03-18T16:17:14.579Z,99926.41
2019-03-18T16:20:19.815Z,99932.81
2019-03-18T16:23:26.070Z,99939.95
2019-03-18T16:26:31.251Z,99942.75
2019-03-18T16:29:36.389Z,99940.86
2019-03-18T16:32:41.514Z,99944.71
2019-03-18T16:35:48.206Z,99946.28
2019-03-18T16:38:54.365Z,99948.52
2019-03-18T16:41:59.541Z,99952.84
2019-03-18T16:45:04.847Z,99945.22
2019-03-18T16:48:09.953Z,99948.77
2019-03-18T16:51:15.146Z,99945.62
2019-03-18T16:54:20.268Z,99948.90
2019-03-18T16:57:25.498Z,99943.88
2019-03-18T17:00:30.732Z,99953.73
2019-03-18T17:03:35.811Z,99967.29
2019-03-18T17:06:42.022Z,99968.69
2019-03-18T17:09:47.151Z,99967.05
2019-03-18T17:12:52.336Z,99979.72
2019-03-18T17:15:57.465Z,99985.39
2019-03-18T17:19:02.608Z,99991.05
2019-03-18T17:22:07.743Z,99989.05
2019-03-18T17:25:14.950Z,99994.04
2019-03-18T17:28:20.083Z,99994.89
2019-03-18T17:31:25.359Z,99996.53
2019-03-18T17:34:30.511Z,100016.66
2019-03-18T17:37:36.749Z,100017.91
2019-03-18T17:40:41.940Z,100021.57
2019-03-18T17:43:47.126Z,100026.19
2019-03-18T17:46:52.301Z,100026.92
2019-03-18T17:49:57.438Z,100038.98
2019-03-18T17:53:03.977Z,100045.69
2019-03-18T17:56:09.483Z,100046.02
2019-03-18T17:59:14.679Z,100048.16
2019-03-18T18:02:19.869Z,100059.04
2019-03-18T18:05:25.032Z,100061.48
2019-03-18T18:08:30.289Z,100066.09
2019-03-18T18:11:35.505Z,100074.80
2019-03-18T18:14:40.707Z,100082.50
2019-03-18T18:17:46.286Z,100084.87
2019-03-18T18:20:51.535Z,100085.31
2019-03-18T18:23:56.665Z,100091.68
2019-03-18T18:27:01.869Z,100104.23
2019-03-18T18:30:07.575Z,100101.77
2019-03-18T18:33:12.759Z,100103.09
2019-03-18T18:36:17.960Z,100120.97
2019-03-18T18:39:23.180Z,100120.47
2019-03-18T18:42:28.249Z,100135.39
2019-03-18T18:45:33.499Z,100140.13
2019-03-18T18:48:38.681Z,100132.71
2019-03-18T18:51:44.011Z,100137.48
2019-03-18T18:54:49.169Z,100144.31
2019-03-18T18:57:54.353Z,100146.00
2019-03-18T19:00:59.591Z,100141.59
2019-03-18T19:04:04.966Z,100148.33
2019-03-18T19:07:10.203Z,100157.44
2019-03-18T19:10:15.501Z,100155.54
2019-03-18T19:13:20.649Z,100171.11
2019-03-18T19:16:25.836Z,100166.53
2019-03-18T19:19:32.363Z,100174.51
2019-03-18T19:22:37.571Z,100172.37
2019-03-18T19:25:42.799Z,100172.56
2019-03-18T19:28:48.003Z,100180.94
2019-03-18T19:31:53.198Z,100179.23
2019-03-18T19:34:58.418Z,100183.51
2019-03-18T19:38:03.821Z,100190.60
2019-03-18T19:41:09.307Z,100200.56
2019-03-18T19:44:15.472Z,100196.27
2019-03-18T19:47:21.910Z,100204.33
2019-03-18T19:50:27.146Z,100204.65
2019-03-18T19:53:32.293Z,100205.44
2019-03-18T19:56:37.447Z,100208.17
2019-03-18T19:59:42.564Z,100215.44
2019-03-18T20:02:47.711Z,100221.70
2019-03-18T20:05:52.958Z,100224.15
2019-03-18T20:08:58.231Z,100221.82
2019-03-18T20:12:03.442Z,100228.66
2019-03-18T20:15:10.344Z,100225.48
2019-03-18T20:18:15.544Z,100235.39
2019-03-18T20:21:20.710Z,100244.77
2019-03-18T20:24:25.903Z,100242.41
2019-03-18T20:27:31.072Z,100253.06
2019-03-18T20:30:36.285Z,100251.66
2019-03-18T20:33:41.530Z,100258.48
2019-03-18T20:36:47.773Z,100260.99
2019-03-18T20:39:53.055Z,100266.19
2019-03-18T20:42:58.266Z,100267.84
2019-03-18T20:46:03.449Z,100268.93
2019-03-18T20:49:09.681Z,100267.61
2019-03-18T20:52:17.028Z,100280.55
2019-03-18T20:55:22.102Z,100281.88
2019-03-18T20:58:27.270Z,100292.25
2019-03-18T21:01:32.465Z,100305.61
2019-03-18T21:04:37.591Z,100299.80
2019-03-18T21:07:42.826Z,100304.56
2019-03-18T21:10:48.003Z,100302.45
2019-03-18T21:13:57.348Z,100307.92
2019-03-18T21:17:00.165Z,100306.84
2019-03-18T21:20:06.330Z,100306.59
2019-03-18T21:23:11.518Z,100305.56
2019-03-18T21:26:16.769Z,100312.14
2019-03-18T21:29:22.044Z,100321.30
2019-03-18T21:32:27.206Z,100320.42
2019-03-18T21:35:32.422Z,100326.55
2019-03-18T21:38:37.665Z,100331.63
2019-03-18T21:41:42.796Z,100338.91
2019-03-18T21:44:48.007Z,100339.78
2019-03-18T21:47:53.143Z,100338.73
2019-03-18T21:50:58.319Z,100340.38
2019-03-18T21:54:03.430Z,100342.28
2019-03-18T21:57:09.208Z,100349.39
2019-03-18T22:00:15.876Z,100345.41
2019-03-18T22:03:21.129Z,100350.38
2019-03-18T22:06:26.313Z,100355.55
2019-03-18T22:09:31.410Z,100349.55
2019-03-18T22:12:36.622Z,100353.34
2019-03-18T22:15:41.770Z,100357.75
2019-03-18T22:18:46.905Z,100361.86
2019-03-18T22:21:52.117Z,100371.80
2019-03-18T22:24:57.273Z,100365.34
2019-03-18T22:28:02.542Z,100369.06
2019-03-18T22:31:07.704Z,100368.51
2019-03-18T22:34:12.914Z,100362.06
2019-03-18T22:37:18.131Z,100365.28
2019-03-18T22:40:23.309Z,100365.37
2019-03-18T22:43:28.457Z,100368.84
2019-03-18T22:46:33.641Z,100368.02
2019-03-18T22:49:38.767Z,100377.31
2019-03-18T22:52:43.897Z,100377.99
2019-03-18T22:55:49.128Z,100377.94
2019-03-18T22:58:54.230Z,100377.84
2019-03-18T23:01:59.438Z,100377.94
2019-03-18T23:05:05.120Z,100386.19
2019-03-18T23:08:10.288Z,100382.25
2019-03-18T23:11:15.418Z,100375.00
2019-03-18T23:14:21.657Z,100368.16
2019-03-18T23:17:26.815Z,100366.67
2019-03-18T23:20:32.001Z,100379.32
2019-03-18T23:23:37.172Z,100386.03
2019-03-18T23:26:42.442Z,100386.18
2019-03-18T23:29:47.592Z,100381.92
2019-03-18T23:32:52.864Z,100384.05
2019-03-18T23:35:58.032Z,100384.05
2019-03-18T23:39:03.847Z,100391.87
2019-03-18T23:42:08.945Z,100396.06
2019-03-18T23:45:14.354Z,100397.73
2019-03-18T23:48:19.509Z,100395.72
2019-03-18T23:51:24.689Z,100401.73
2019-03-18T23:54:30.254Z,100398.04
2019-03-18T23:57:35.474Z,100409.20
